sensor_id;sensor_type;location;lat;lon;timestamp;temperature;humidity
58554;DHT22;48119;53.218;6.576;2023-12-04T00:00:19;4.60;99.90
58554;DHT22;48119;53.218;6.576;2023-12-04T00:02:50;4.60;99.90
58554;DHT22;48119;53.218;6.576;2023-12-04T00:06:04;4.60;99.90
58554;DHT22;48119;53.218;6.576;2023-12-04T00:08:36;4.60;99.90
58554;DHT22;48119;53.218;6.576;2023-12-04T00:11:05;4.70;99.90
58554;DHT22;48119;53.218;6.576;2023-12-04T00:13:41;4.60;99.90
58554;DHT22;48119;53.218;6.576;2023-12-04T00:16:10;4.60;99.90
58554;DHT22;48119;53.218;6.576;2023-12-04T00:18:47;4.60;99.90
58554;DHT22;48119;53.218;6.576;2023-12-04T00:21:13;4.60;99.90
58554;DHT22;48119;53.218;6.576;2023-12-04T00:23:52;4.60;99.90
58554;DHT22;48119;53.218;6.576;2023-12-04T00:26:26;4.60;99.90
58554;DHT22;48119;53.218;6.576;2023-12-04T00:28:56;4.50;99.90
58554;DHT22;48119;53.218;6.576;2023-12-04T00:31:22;4.50;99.90
58554;DHT22;48119;53.218;6.576;2023-12-04T00:34:08;4.50;99.90
58554;DHT22;48119;53.218;6.576;2023-12-04T00:36:45;4.50;99.90
58554;DHT22;48119;53.218;6.576;2023-12-04T00:39:13;4.50;99.90
58554;DHT22;48119;53.218;6.576;2023-12-04T00:41:54;4.50;99.90
58554;DHT22;48119;53.218;6.576;2023-12-04T00:44:22;4.50;99.90
58554;DHT22;48119;53.218;6.576;2023-12-04T00:46:55;4.50;99.90
58554;DHT22;48119;53.218;6.576;2023-12-04T00:49:36;4.50;99.90
58554;DHT22;48119;53.218;6.576;2023-12-04T00:52:10;4.40;99.90
58554;DHT22;48119;53.218;6.576;2023-12-04T00:54:42;4.40;99.90
58554;DHT22;48119;53.218;6.576;2023-12-04T00:57:11;4.30;99.90
58554;DHT22;48119;53.218;6.576;2023-12-04T00:59:36;4.40;99.90
58554;DHT22;48119;53.218;6.576;2023-12-04T01:02:07;4.40;99.90
58554;DHT22;48119;53.218;6.576;2023-12-04T01:04:48;4.40;99.90
58554;DHT22;48119;53.218;6.576;2023-12-04T01:07:19;4.40;99.90
58554;DHT22;48119;53.218;6.576;2023-12-04T01:09:53;4.50;99.90
58554;DHT22;48119;53.218;6.576;2023-12-04T01:18:12;4.40;99.90
58554;DHT22;48119;53.218;6.576;2023-12-04T01:21:04;4.40;99.90
58554;DHT22;48119;53.218;6.576;2023-12-04T01:23:49;4.40;99.90
58554;DHT22;48119;53.218;6.576;2023-12-04T01:26:31;4.40;99.90
58554;DHT22;48119;53.218;6.576;2023-12-04T01:29:06;4.30;99.90
58554;DHT22;48119;53.218;6.576;2023-12-04T01:31:34;4.40;99.90
58554;DHT22;48119;53.218;6.576;2023-12-04T01:34:11;4.40;99.90
58554;DHT22;48119;53.218;6.576;2023-12-04T01:36:40;4.40;99.90
58554;DHT22;48119;53.218;6.576;2023-12-04T01:39:09;4.50;99.90
58554;DHT22;48119;53.218;6.576;2023-12-04T01:41:45;4.40;99.90
58554;DHT22;48119;53.218;6.576;2023-12-04T01:44:13;4.40;99.90
58554;DHT22;48119;53.218;6.576;2023-12-04T01:46:51;4.50;99.90
58554;DHT22;48119;53.218;6.576;2023-12-04T01:49:27;4.40;99.90
58554;DHT22;48119;53.218;6.576;2023-12-04T01:52:01;4.50;99.90
58554;DHT22;48119;53.218;6.576;2023-12-04T01:54:27;4.40;99.90
58554;DHT22;48119;53.218;6.576;2023-12-04T01:57:05;4.40;99.90
58554;DHT22;48119;53.218;6.576;2023-12-04T02:02:48;4.40;99.90
58554;DHT22;48119;53.218;6.576;2023-12-04T02:05:29;4.40;99.90
58554;DHT22;48119;53.218;6.576;2023-12-04T02:08:04;4.40;99.90
58554;DHT22;48119;53.218;6.576;2023-12-04T02:10:35;4.40;99.90
58554;DHT22;48119;53.218;6.576;2023-12-04T02:13:03;4.30;99.90
58554;DHT22;48119;53.218;6.576;2023-12-04T02:15:29;4.40;99.90
58554;DHT22;48119;53.218;6.576;2023-12-04T02:17:55;4.40;99.90
58554;DHT22;48119;53.218;6.576;2023-12-04T02:20:21;4.40;99.90
58554;DHT22;48119;53.218;6.576;2023-12-04T02:22:55;4.30;99.90
58554;DHT22;48119;53.218;6.576;2023-12-04T02:25:21;4.30;99.90
58554;DHT22;48119;53.218;6.576;2023-12-04T02:27:49;4.40;99.90
58554;DHT22;48119;53.218;6.576;2023-12-04T02:30:18;4.40;99.90
58554;DHT22;48119;53.218;6.576;2023-12-04T02:32:46;4.40;99.90
58554;DHT22;48119;53.218;6.576;2023-12-04T02:35:14;4.30;99.90
58554;DHT22;48119;53.218;6.576;2023-12-04T02:37:42;4.40;99.90
58554;DHT22;48119;53.218;6.576;2023-12-04T02:40:08;4.40;99.90
58554;DHT22;48119;53.218;6.576;2023-12-04T02:42:34;4.40;99.90
58554;DHT22;48119;53.218;6.576;2023-12-04T02:45:00;4.40;99.90
58554;DHT22;48119;53.218;6.576;2023-12-04T02:47:25;4.40;99.90
58554;DHT22;48119;53.218;6.576;2023-12-04T02:49:51;4.50;99.90
58554;DHT22;48119;53.218;6.576;2023-12-04T02:52:18;4.50;99.90
58554;DHT22;48119;53.218;6.576;2023-12-04T02:54:44;4.40;99.90
58554;DHT22;48119;53.218;6.576;2023-12-04T02:57:09;4.50;99.90
58554;DHT22;48119;53.218;6.576;2023-12-04T02:59:35;4.50;99.90
58554;DHT22;48119;53.218;6.576;2023-12-04T03:02:01;4.50;99.90
58554;DHT22;48119;53.218;6.576;2023-12-04T03:04:28;4.40;99.90
58554;DHT22;48119;53.218;6.576;2023-12-04T03:06:55;4.40;99.90
58554;DHT22;48119;53.218;6.576;2023-12-04T03:09:21;4.40;99.90
58554;DHT22;48119;53.218;6.576;2023-12-04T03:11:47;4.50;99.90
58554;DHT22;48119;53.218;6.576;2023-12-04T03:14:12;4.50;99.90
58554;DHT22;48119;53.218;6.576;2023-12-04T03:16:38;4.40;99.90
58554;DHT22;48119;53.218;6.576;2023-12-04T03:19:04;4.50;99.90
58554;DHT22;48119;53.218;6.576;2023-12-04T03:21:30;4.40;99.90
58554;DHT22;48119;53.218;6.576;2023-12-04T03:23:55;4.40;99.90
58554;DHT22;48119;53.218;6.576;2023-12-04T03:26:21;4.40;99.90
58554;DHT22;48119;53.218;6.576;2023-12-04T03:28:47;4.40;99.90
58554;DHT22;48119;53.218;6.576;2023-12-04T03:31:13;4.40;99.90
58554;DHT22;48119;53.218;6.576;2023-12-04T03:33:38;4.40;99.90
58554;DHT22;48119;53.218;6.576;2023-12-04T03:36:05;4.40;99.90
58554;DHT22;48119;53.218;6.576;2023-12-04T03:38:30;4.40;99.90
58554;DHT22;48119;53.218;6.576;2023-12-04T03:40:56;4.40;99.90
58554;DHT22;48119;53.218;6.576;2023-12-04T03:43:22;4.40;99.90
58554;DHT22;48119;53.218;6.576;2023-12-04T03:45:48;4.50;99.90
58554;DHT22;48119;53.218;6.576;2023-12-04T03:48:13;4.50;99.90
58554;DHT22;48119;53.218;6.576;2023-12-04T03:50:39;4.50;99.90
58554;DHT22;48119;53.218;6.576;2023-12-04T03:53:05;4.50;99.90
58554;DHT22;48119;53.218;6.576;2023-12-04T03:55:30;4.50;99.90
58554;DHT22;48119;53.218;6.576;2023-12-04T03:57:57;4.50;99.90
58554;DHT22;48119;53.218;6.576;2023-12-04T04:00:23;4.50;99.90
58554;DHT22;48119;53.218;6.576;2023-12-04T04:02:49;4.50;99.90
58554;DHT22;48119;53.218;6.576;2023-12-04T04:05:15;4.50;99.90
58554;DHT22;48119;53.218;6.576;2023-12-04T04:07:41;4.40;99.90
58554;DHT22;48119;53.218;6.576;2023-12-04T04:10:07;4.50;99.90
58554;DHT22;48119;53.218;6.576;2023-12-04T04:12:33;4.50;99.90
58554;DHT22;48119;53.218;6.576;2023-12-04T04:14:59;4.50;99.90
58554;DHT22;48119;53.218;6.576;2023-12-04T04:17:25;4.40;99.90
58554;DHT22;48119;53.218;6.576;2023-12-04T04:19:54;4.50;99.90
58554;DHT22;48119;53.218;6.576;2023-12-04T04:22:21;4.50;99.90
58554;DHT22;48119;53.218;6.576;2023-12-04T04:24:48;4.50;99.90
58554;DHT22;48119;53.218;6.576;2023-12-04T04:27:14;4.50;99.90
58554;DHT22;48119;53.218;6.576;2023-12-04T04:29:40;4.50;99.90
58554;DHT22;48119;53.218;6.576;2023-12-04T04:32:06;4.50;99.90
58554;DHT22;48119;53.218;6.576;2023-12-04T04:34:32;4.50;99.90
58554;DHT22;48119;53.218;6.576;2023-12-04T04:36:58;4.50;99.90
58554;DHT22;48119;53.218;6.576;2023-12-04T04:39:23;4.50;99.90
58554;DHT22;48119;53.218;6.576;2023-12-04T04:41:49;4.50;99.90
58554;DHT22;48119;53.218;6.576;2023-12-04T04:44:15;4.50;99.90
58554;DHT22;48119;53.218;6.576;2023-12-04T04:46:41;4.50;99.90
58554;DHT22;48119;53.218;6.576;2023-12-04T04:49:06;4.50;99.90
58554;DHT22;48119;53.218;6.576;2023-12-04T04:51:33;4.50;99.90
58554;DHT22;48119;53.218;6.576;2023-12-04T04:54:00;4.60;99.90
58554;DHT22;48119;53.218;6.576;2023-12-04T04:56:26;4.60;99.90
58554;DHT22;48119;53.218;6.576;2023-12-04T04:58:51;4.60;99.90
58554;DHT22;48119;53.218;6.576;2023-12-04T05:01:17;4.60;99.90
58554;DHT22;48119;53.218;6.576;2023-12-04T05:03:43;4.60;99.90
58554;DHT22;48119;53.218;6.576;2023-12-04T05:06:09;4.60;99.90
58554;DHT22;48119;53.218;6.576;2023-12-04T05:08:35;4.60;99.90
58554;DHT22;48119;53.218;6.576;2023-12-04T05:11:01;4.60;99.90
58554;DHT22;48119;53.218;6.576;2023-12-04T05:13:27;4.60;99.90
58554;DHT22;48119;53.218;6.576;2023-12-04T05:15:53;4.60;99.90
58554;DHT22;48119;53.218;6.576;2023-12-04T05:18:19;4.50;99.90
58554;DHT22;48119;53.218;6.576;2023-12-04T05:20:45;4.60;99.90
58554;DHT22;48119;53.218;6.576;2023-12-04T05:23:11;4.60;99.90
58554;DHT22;48119;53.218;6.576;2023-12-04T05:25:36;4.60;99.90
58554;DHT22;48119;53.218;6.576;2023-12-04T05:28:03;4.60;99.90
58554;DHT22;48119;53.218;6.576;2023-12-04T05:30:29;4.50;99.90
58554;DHT22;48119;53.218;6.576;2023-12-04T05:32:55;4.60;99.90
58554;DHT22;48119;53.218;6.576;2023-12-04T05:35:21;4.60;99.90
58554;DHT22;48119;53.218;6.576;2023-12-04T05:37:47;4.60;99.90
58554;DHT22;48119;53.218;6.576;2023-12-04T05:40:13;4.60;99.90
58554;DHT22;48119;53.218;6.576;2023-12-04T05:42:39;4.60;99.90
58554;DHT22;48119;53.218;6.576;2023-12-04T05:45:07;4.50;99.90
58554;DHT22;48119;53.218;6.576;2023-12-04T05:47:33;4.50;99.90
58554;DHT22;48119;53.218;6.576;2023-12-04T05:50:00;4.50;99.90
58554;DHT22;48119;53.218;6.576;2023-12-04T05:52:26;4.60;99.90
58554;DHT22;48119;53.218;6.576;2023-12-04T05:54:51;4.60;99.90
58554;DHT22;48119;53.218;6.576;2023-12-04T05:57:17;4.60;99.90
58554;DHT22;48119;53.218;6.576;2023-12-04T05:59:43;4.70;99.90
58554;DHT22;48119;53.218;6.576;2023-12-04T06:02:09;4.70;99.90
58554;DHT22;48119;53.218;6.576;2023-12-04T06:04:35;4.70;99.90
58554;DHT22;48119;53.218;6.576;2023-12-04T06:07:00;4.60;99.90
58554;DHT22;48119;53.218;6.576;2023-12-04T06:09:26;4.60;99.90
58554;DHT22;48119;53.218;6.576;2023-12-04T06:11:52;4.60;99.90
58554;DHT22;48119;53.218;6.576;2023-12-04T06:14:17;4.60;99.90
58554;DHT22;48119;53.218;6.576;2023-12-04T06:16:43;4.60;99.90
58554;DHT22;48119;53.218;6.576;2023-12-04T06:19:09;4.60;99.90
58554;DHT22;48119;53.218;6.576;2023-12-04T06:21:35;4.60;99.90
58554;DHT22;48119;53.218;6.576;2023-12-04T06:24:00;4.60;99.90
58554;DHT22;48119;53.218;6.576;2023-12-04T06:26:27;4.60;99.90
58554;DHT22;48119;53.218;6.576;2023-12-04T06:28:53;4.60;99.90
58554;DHT22;48119;53.218;6.576;2023-12-04T06:31:18;4.70;99.90
58554;DHT22;48119;53.218;6.576;2023-12-04T06:33:44;4.70;99.90
58554;DHT22;48119;53.218;6.576;2023-12-04T06:36:12;4.70;99.90
58554;DHT22;48119;53.218;6.576;2023-12-04T06:38:40;4.70;99.90
58554;DHT22;48119;53.218;6.576;2023-12-04T06:41:07;4.70;99.90
58554;DHT22;48119;53.218;6.576;2023-12-04T06:43:33;4.70;99.90
58554;DHT22;48119;53.218;6.576;2023-12-04T06:45:59;4.70;99.90
58554;DHT22;48119;53.218;6.576;2023-12-04T06:48:25;4.70;99.90
58554;DHT22;48119;53.218;6.576;2023-12-04T06:50:51;4.70;99.90
58554;DHT22;48119;53.218;6.576;2023-12-04T06:53:17;4.60;99.90
58554;DHT22;48119;53.218;6.576;2023-12-04T06:55:43;4.70;99.90
58554;DHT22;48119;53.218;6.576;2023-12-04T06:58:09;4.70;99.90
58554;DHT22;48119;53.218;6.576;2023-12-04T07:00:35;4.70;99.90
58554;DHT22;48119;53.218;6.576;2023-12-04T07:03:01;4.70;99.90
58554;DHT22;48119;53.218;6.576;2023-12-04T07:05:27;4.60;99.90
58554;DHT22;48119;53.218;6.576;2023-12-04T07:07:52;4.70;99.90
58554;DHT22;48119;53.218;6.576;2023-12-04T07:10:18;4.70;99.90
58554;DHT22;48119;53.218;6.576;2023-12-04T07:12:44;4.60;99.90
58554;DHT22;48119;53.218;6.576;2023-12-04T07:15:11;4.70;99.90
58554;DHT22;48119;53.218;6.576;2023-12-04T07:17:38;4.70;99.90
58554;DHT22;48119;53.218;6.576;2023-12-04T07:20:04;4.60;99.90
58554;DHT22;48119;53.218;6.576;2023-12-04T07:22:34;4.70;99.90
58554;DHT22;48119;53.218;6.576;2023-12-04T07:25:00;4.70;99.90
58554;DHT22;48119;53.218;6.576;2023-12-04T07:27:25;4.70;99.90
58554;DHT22;48119;53.218;6.576;2023-12-04T07:29:51;4.70;99.90
58554;DHT22;48119;53.218;6.576;2023-12-04T07:32:17;4.70;99.90
58554;DHT22;48119;53.218;6.576;2023-12-04T07:34:46;4.70;99.90
58554;DHT22;48119;53.218;6.576;2023-12-04T07:37:12;4.70;99.90
58554;DHT22;48119;53.218;6.576;2023-12-04T07:39:37;4.70;99.90
58554;DHT22;48119;53.218;6.576;2023-12-04T07:42:03;4.70;99.90
58554;DHT22;48119;53.218;6.576;2023-12-04T07:44:29;4.70;99.90
58554;DHT22;48119;53.218;6.576;2023-12-04T07:46:55;4.70;99.90
58554;DHT22;48119;53.218;6.576;2023-12-04T07:49:21;4.70;99.90
58554;DHT22;48119;53.218;6.576;2023-12-04T07:51:47;4.70;99.90
58554;DHT22;48119;53.218;6.576;2023-12-04T07:54:13;4.70;99.90
58554;DHT22;48119;53.218;6.576;2023-12-04T07:56:38;4.70;99.90
58554;DHT22;48119;53.218;6.576;2023-12-04T07:59:04;4.70;99.90
58554;DHT22;48119;53.218;6.576;2023-12-04T08:01:30;4.70;99.90
58554;DHT22;48119;53.218;6.576;2023-12-04T08:03:55;4.70;99.90
58554;DHT22;48119;53.218;6.576;2023-12-04T08:06:21;4.70;99.90
58554;DHT22;48119;53.218;6.576;2023-12-04T08:08:47;4.70;99.90
58554;DHT22;48119;53.218;6.576;2023-12-04T08:11:12;4.70;99.90
58554;DHT22;48119;53.218;6.576;2023-12-04T08:13:39;4.70;99.90
58554;DHT22;48119;53.218;6.576;2023-12-04T08:16:12;4.70;99.90
58554;DHT22;48119;53.218;6.576;2023-12-04T08:18:38;4.70;99.90
58554;DHT22;48119;53.218;6.576;2023-12-04T08:21:04;4.80;99.90
58554;DHT22;48119;53.218;6.576;2023-12-04T08:23:30;4.80;99.90
58554;DHT22;48119;53.218;6.576;2023-12-04T08:25:56;4.80;99.90
58554;DHT22;48119;53.218;6.576;2023-12-04T08:28:22;4.80;99.90
58554;DHT22;48119;53.218;6.576;2023-12-04T08:30:48;4.80;99.90
58554;DHT22;48119;53.218;6.576;2023-12-04T08:33:14;4.80;99.90
58554;DHT22;48119;53.218;6.576;2023-12-04T08:35:40;4.80;99.90
58554;DHT22;48119;53.218;6.576;2023-12-04T08:38:06;4.80;99.90
58554;DHT22;48119;53.218;6.576;2023-12-04T08:40:32;4.80;99.90
58554;DHT22;48119;53.218;6.576;2023-12-04T08:42:57;4.80;99.90
58554;DHT22;48119;53.218;6.576;2023-12-04T08:45:23;4.80;99.90
58554;DHT22;48119;53.218;6.576;2023-12-04T08:47:49;4.80;99.90
58554;DHT22;48119;53.218;6.576;2023-12-04T08:50:15;4.80;99.90
58554;DHT22;48119;53.218;6.576;2023-12-04T08:52:42;4.90;99.90
58554;DHT22;48119;53.218;6.576;2023-12-04T08:55:08;4.80;99.90
58554;DHT22;48119;53.218;6.576;2023-12-04T08:57:34;4.90;99.90
58554;DHT22;48119;53.218;6.576;2023-12-04T08:59:59;4.90;99.90
58554;DHT22;48119;53.218;6.576;2023-12-04T09:02:25;4.80;99.90
58554;DHT22;48119;53.218;6.576;2023-12-04T09:04:51;4.80;99.90
58554;DHT22;48119;53.218;6.576;2023-12-04T09:07:17;4.90;99.90
58554;DHT22;48119;53.218;6.576;2023-12-04T09:09:42;4.80;99.90
58554;DHT22;48119;53.218;6.576;2023-12-04T09:12:10;4.90;99.90
58554;DHT22;48119;53.218;6.576;2023-12-04T09:14:36;4.90;99.90
58554;DHT22;48119;53.218;6.576;2023-12-04T09:17:01;4.90;99.90
58554;DHT22;48119;53.218;6.576;2023-12-04T09:19:29;4.90;99.90
58554;DHT22;48119;53.218;6.576;2023-12-04T09:21:55;4.90;99.90
58554;DHT22;48119;53.218;6.576;2023-12-04T09:24:22;4.90;99.90
58554;DHT22;48119;53.218;6.576;2023-12-04T09:26:49;4.90;99.90
58554;DHT22;48119;53.218;6.576;2023-12-04T09:29:15;4.90;99.90
58554;DHT22;48119;53.218;6.576;2023-12-04T09:31:41;4.90;99.90
58554;DHT22;48119;53.218;6.576;2023-12-04T09:34:08;4.90;99.90
58554;DHT22;48119;53.218;6.576;2023-12-04T09:36:35;4.90;99.90
58554;DHT22;48119;53.218;6.576;2023-12-04T09:39:01;4.90;99.90
58554;DHT22;48119;53.218;6.576;2023-12-04T09:41:29;4.90;99.90
58554;DHT22;48119;53.218;6.576;2023-12-04T09:43:56;4.90;99.90
58554;DHT22;48119;53.218;6.576;2023-12-04T09:46:22;4.90;99.90
58554;DHT22;48119;53.218;6.576;2023-12-04T09:48:48;4.90;99.90
58554;DHT22;48119;53.218;6.576;2023-12-04T09:51:18;4.90;99.90
58554;DHT22;48119;53.218;6.576;2023-12-04T09:53:47;4.90;99.90
58554;DHT22;48119;53.218;6.576;2023-12-04T09:56:14;5.00;99.90
58554;DHT22;48119;53.218;6.576;2023-12-04T09:58:41;5.00;99.90
58554;DHT22;48119;53.218;6.576;2023-12-04T10:01:08;5.00;99.90
58554;DHT22;48119;53.218;6.576;2023-12-04T10:03:35;5.00;99.90
58554;DHT22;48119;53.218;6.576;2023-12-04T10:06:02;5.00;99.90
58554;DHT22;48119;53.218;6.576;2023-12-04T10:08:29;5.00;99.90
58554;DHT22;48119;53.218;6.576;2023-12-04T10:10:55;5.00;99.90
58554;DHT22;48119;53.218;6.576;2023-12-04T10:13:21;5.00;99.90
58554;DHT22;48119;53.218;6.576;2023-12-04T10:15:50;5.00;99.90
58554;DHT22;48119;53.218;6.576;2023-12-04T10:18:26;5.10;99.90
58554;DHT22;48119;53.218;6.576;2023-12-04T10:20:53;5.10;99.90
58554;DHT22;48119;53.218;6.576;2023-12-04T10:23:20;5.10;99.90
58554;DHT22;48119;53.218;6.576;2023-12-04T10:25:48;5.10;99.90
58554;DHT22;48119;53.218;6.576;2023-12-04T10:28:16;5.10;99.90
58554;DHT22;48119;53.218;6.576;2023-12-04T10:30:42;5.10;99.90
58554;DHT22;48119;53.218;6.576;2023-12-04T10:33:08;5.10;99.90
58554;DHT22;48119;53.218;6.576;2023-12-04T10:35:35;5.10;99.90
58554;DHT22;48119;53.218;6.576;2023-12-04T10:38:07;5.10;99.90
58554;DHT22;48119;53.218;6.576;2023-12-04T10:40:36;5.10;99.90
58554;DHT22;48119;53.218;6.576;2023-12-04T10:45:41;5.20;99.90
58554;DHT22;48119;53.218;6.576;2023-12-04T10:48:08;5.20;99.90
58554;DHT22;48119;53.218;6.576;2023-12-04T10:50:38;5.20;99.90
58554;DHT22;48119;53.218;6.576;2023-12-04T10:53:05;5.10;99.90
58554;DHT22;48119;53.218;6.576;2023-12-04T10:55:31;5.10;99.90
58554;DHT22;48119;53.218;6.576;2023-12-04T10:58:01;5.20;99.90
58554;DHT22;48119;53.218;6.576;2023-12-04T11:00:28;5.10;99.90
58554;DHT22;48119;53.218;6.576;2023-12-04T11:02:56;5.10;99.90
58554;DHT22;48119;53.218;6.576;2023-12-04T11:05:24;5.10;99.90
58554;DHT22;48119;53.218;6.576;2023-12-04T11:08:14;5.20;99.90
58554;DHT22;48119;53.218;6.576;2023-12-04T11:11:01;5.20;99.90
58554;DHT22;48119;53.218;6.576;2023-12-04T11:13:30;5.20;99.90
58554;DHT22;48119;53.218;6.576;2023-12-04T11:17:01;5.10;99.90
58554;DHT22;48119;53.218;6.576;2023-12-04T11:19:13;5.10;99.90
58554;DHT22;48119;53.218;6.576;2023-12-04T11:21:40;5.10;99.90
58554;DHT22;48119;53.218;6.576;2023-12-04T11:24:07;5.10;99.90
58554;DHT22;48119;53.218;6.576;2023-12-04T11:26:34;5.10;99.90
58554;DHT22;48119;53.218;6.576;2023-12-04T11:29:01;5.10;99.90
58554;DHT22;48119;53.218;6.576;2023-12-04T11:31:27;5.10;99.90
58554;DHT22;48119;53.218;6.576;2023-12-04T11:33:53;5.10;99.90
58554;DHT22;48119;53.218;6.576;2023-12-04T11:36:26;5.20;99.90
58554;DHT22;48119;53.218;6.576;2023-12-04T11:38:53;5.20;99.90
58554;DHT22;48119;53.218;6.576;2023-12-04T11:41:21;5.20;99.90
58554;DHT22;48119;53.218;6.576;2023-12-04T11:43:47;5.20;99.90
58554;DHT22;48119;53.218;6.576;2023-12-04T11:46:18;5.20;99.90
58554;DHT22;48119;53.218;6.576;2023-12-04T11:48:47;5.20;99.90
58554;DHT22;48119;53.218;6.576;2023-12-04T11:53:59;5.30;99.90
58554;DHT22;48119;53.218;6.576;2023-12-04T11:56:25;5.30;99.90
58554;DHT22;48119;53.218;6.576;2023-12-04T11:58:50;5.30;99.90
58554;DHT22;48119;53.218;6.576;2023-12-04T12:01:20;5.30;99.90
58554;DHT22;48119;53.218;6.576;2023-12-04T12:03:50;5.20;99.90
58554;DHT22;48119;53.218;6.576;2023-12-04T12:06:16;5.30;99.90
58554;DHT22;48119;53.218;6.576;2023-12-04T12:08:42;5.20;99.90
58554;DHT22;48119;53.218;6.576;2023-12-04T12:11:08;5.30;99.90
58554;DHT22;48119;53.218;6.576;2023-12-04T12:13:34;5.30;99.90
58554;DHT22;48119;53.218;6.576;2023-12-04T12:15:59;5.30;99.90
58554;DHT22;48119;53.218;6.576;2023-12-04T12:18:27;5.30;99.90
58554;DHT22;48119;53.218;6.576;2023-12-04T12:20:55;5.30;99.90
58554;DHT22;48119;53.218;6.576;2023-12-04T12:23:22;5.30;99.90
58554;DHT22;48119;53.218;6.576;2023-12-04T12:25:47;5.30;99.90
58554;DHT22;48119;53.218;6.576;2023-12-04T12:28:13;5.30;99.90
58554;DHT22;48119;53.218;6.576;2023-12-04T12:30:39;5.30;99.90
58554;DHT22;48119;53.218;6.576;2023-12-04T12:33:05;5.30;99.90
58554;DHT22;48119;53.218;6.576;2023-12-04T12:35:31;5.30;99.90
58554;DHT22;48119;53.218;6.576;2023-12-04T12:37:56;5.30;99.90
58554;DHT22;48119;53.218;6.576;2023-12-04T12:40:22;5.30;99.90
58554;DHT22;48119;53.218;6.576;2023-12-04T12:42:48;5.30;99.90
58554;DHT22;48119;53.218;6.576;2023-12-04T12:45:14;5.30;99.90
58554;DHT22;48119;53.218;6.576;2023-12-04T12:47:43;5.30;99.90
58554;DHT22;48119;53.218;6.576;2023-12-04T12:50:09;5.30;99.90
58554;DHT22;48119;53.218;6.576;2023-12-04T12:52:39;5.30;99.90
58554;DHT22;48119;53.218;6.576;2023-12-04T12:55:05;5.30;99.90
58554;DHT22;48119;53.218;6.576;2023-12-04T12:57:32;5.30;99.90
58554;DHT22;48119;53.218;6.576;2023-12-04T12:59:58;5.40;99.90
58554;DHT22;48119;53.218;6.576;2023-12-04T13:02:23;5.30;99.90
58554;DHT22;48119;53.218;6.576;2023-12-04T13:04:50;5.40;99.90
58554;DHT22;48119;53.218;6.576;2023-12-04T13:07:16;5.40;99.90
58554;DHT22;48119;53.218;6.576;2023-12-04T13:09:44;5.40;99.90
58554;DHT22;48119;53.218;6.576;2023-12-04T13:12:09;5.30;99.90
58554;DHT22;48119;53.218;6.576;2023-12-04T13:14:36;5.40;99.90
58554;DHT22;48119;53.218;6.576;2023-12-04T13:17:02;5.40;99.90
58554;DHT22;48119;53.218;6.576;2023-12-04T13:19:29;5.40;99.90
58554;DHT22;48119;53.218;6.576;2023-12-04T13:21:57;5.40;99.90
58554;DHT22;48119;53.218;6.576;2023-12-04T13:24:23;5.40;99.90
58554;DHT22;48119;53.218;6.576;2023-12-04T13:26:48;5.40;99.90
58554;DHT22;48119;53.218;6.576;2023-12-04T13:29:14;5.40;99.90
58554;DHT22;48119;53.218;6.576;2023-12-04T13:31:41;5.40;99.90
58554;DHT22;48119;53.218;6.576;2023-12-04T13:34:07;5.40;99.90
58554;DHT22;48119;53.218;6.576;2023-12-04T13:36:34;5.40;99.90
58554;DHT22;48119;53.218;6.576;2023-12-04T13:39:00;5.40;99.90
58554;DHT22;48119;53.218;6.576;2023-12-04T13:41:25;5.40;99.90
58554;DHT22;48119;53.218;6.576;2023-12-04T13:44:10;5.40;99.90
58554;DHT22;48119;53.218;6.576;2023-12-04T13:46:38;5.40;99.90
58554;DHT22;48119;53.218;6.576;2023-12-04T13:49:04;5.40;99.90
58554;DHT22;48119;53.218;6.576;2023-12-04T13:51:30;5.40;99.90
58554;DHT22;48119;53.218;6.576;2023-12-04T13:53:56;5.40;99.90
58554;DHT22;48119;53.218;6.576;2023-12-04T13:56:28;5.30;99.90
58554;DHT22;48119;53.218;6.576;2023-12-04T13:59:18;5.40;99.90
58554;DHT22;48119;53.218;6.576;2023-12-04T14:01:46;5.30;99.90
58554;DHT22;48119;53.218;6.576;2023-12-04T14:04:12;5.30;99.90
58554;DHT22;48119;53.218;6.576;2023-12-04T14:06:38;5.30;99.90
58554;DHT22;48119;53.218;6.576;2023-12-04T14:09:04;5.30;99.90
58554;DHT22;48119;53.218;6.576;2023-12-04T14:11:40;5.40;99.90
58554;DHT22;48119;53.218;6.576;2023-12-04T14:14:06;5.40;99.90
58554;DHT22;48119;53.218;6.576;2023-12-04T14:16:31;5.40;99.90
58554;DHT22;48119;53.218;6.576;2023-12-04T14:18:57;5.40;99.90
58554;DHT22;48119;53.218;6.576;2023-12-04T14:21:23;5.40;99.90
58554;DHT22;48119;53.218;6.576;2023-12-04T14:23:48;5.30;99.90
58554;DHT22;48119;53.218;6.576;2023-12-04T14:26:15;5.40;99.90
58554;DHT22;48119;53.218;6.576;2023-12-04T14:28:41;5.40;99.90
58554;DHT22;48119;53.218;6.576;2023-12-04T14:31:07;5.40;99.90
58554;DHT22;48119;53.218;6.576;2023-12-04T14:33:33;5.40;99.90
58554;DHT22;48119;53.218;6.576;2023-12-04T14:35:59;5.40;99.90
58554;DHT22;48119;53.218;6.576;2023-12-04T14:38:24;5.40;99.90
58554;DHT22;48119;53.218;6.576;2023-12-04T14:40:50;5.40;99.90
58554;DHT22;48119;53.218;6.576;2023-12-04T14:43:16;5.40;99.90
58554;DHT22;48119;53.218;6.576;2023-12-04T14:45:42;5.40;99.90
58554;DHT22;48119;53.218;6.576;2023-12-04T14:48:07;5.40;99.90
58554;DHT22;48119;53.218;6.576;2023-12-04T14:50:34;5.30;99.90
58554;DHT22;48119;53.218;6.576;2023-12-04T14:53:05;5.30;99.90
58554;DHT22;48119;53.218;6.576;2023-12-04T14:55:49;5.30;99.90
58554;DHT22;48119;53.218;6.576;2023-12-04T14:58:33;5.30;99.90
58554;DHT22;48119;53.218;6.576;2023-12-04T15:01:14;5.30;99.90
58554;DHT22;48119;53.218;6.576;2023-12-04T15:04:18;5.30;99.90
58554;DHT22;48119;53.218;6.576;2023-12-04T15:06:49;5.30;99.90
58554;DHT22;48119;53.218;6.576;2023-12-04T15:09:33;5.30;99.90
58554;DHT22;48119;53.218;6.576;2023-12-04T15:12:17;5.30;99.90
58554;DHT22;48119;53.218;6.576;2023-12-04T15:14:45;5.30;99.90
58554;DHT22;48119;53.218;6.576;2023-12-04T15:17:11;5.30;99.90
58554;DHT22;48119;53.218;6.576;2023-12-04T15:19:54;5.30;99.90
58554;DHT22;48119;53.218;6.576;2023-12-04T15:22:35;5.30;99.90
58554;DHT22;48119;53.218;6.576;2023-12-04T15:25:03;5.20;99.90
58554;DHT22;48119;53.218;6.576;2023-12-04T15:27:29;5.30;99.90
58554;DHT22;48119;53.218;6.576;2023-12-04T15:29:55;5.20;99.90
58554;DHT22;48119;53.218;6.576;2023-12-04T15:32:20;5.20;99.90
58554;DHT22;48119;53.218;6.576;2023-12-04T15:34:46;5.20;99.90
58554;DHT22;48119;53.218;6.576;2023-12-04T15:37:12;5.20;99.90
58554;DHT22;48119;53.218;6.576;2023-12-04T15:39:38;5.20;99.90
58554;DHT22;48119;53.218;6.576;2023-12-04T15:42:05;5.20;99.90
58554;DHT22;48119;53.218;6.576;2023-12-04T15:44:32;5.20;99.90
58554;DHT22;48119;53.218;6.576;2023-12-04T15:46:58;5.30;99.90
58554;DHT22;48119;53.218;6.576;2023-12-04T15:49:24;5.30;99.90
58554;DHT22;48119;53.218;6.576;2023-12-04T15:51:50;5.20;99.90
58554;DHT22;48119;53.218;6.576;2023-12-04T15:54:15;5.30;99.90
58554;DHT22;48119;53.218;6.576;2023-12-04T15:56:41;5.30;99.90
58554;DHT22;48119;53.218;6.576;2023-12-04T15:59:07;5.30;99.90
58554;DHT22;48119;53.218;6.576;2023-12-04T16:01:32;5.20;99.90
58554;DHT22;48119;53.218;6.576;2023-12-04T16:03:59;5.20;99.90